PVV9805 LDZA-LFSB
Flight info
| Callsign | PVV9805 |
|---|---|
| Flight time | N/A |
| Altitude | 32000 |
| Route | PODET DCT KLAGY DCT NANIT DCT ERKIR DCT KPT L856 TRA T718 RIGVI |
| Aircraft | B742/H-SDFHIRWXY/L |
Departure
| Time | 2026-05-07 14:33 |
|---|---|
| Airport | Zagreb Franjo Tuđman International Airport (LDZA) |
Arrival
| Time | N/A |
|---|---|
| Airport | EuroAirport Basel–Mulhouse–Freiburg (LFSB) |
| Time | Latitude | Longitude | Altitude | Speed | Heading |
|---|---|---|---|---|---|
| 2026-05-07 13:59 | 45.73566 | 16.06271 | 352 ft | 0 kts | 134° |
| 2026-05-07 14:23 | 45.73571 | 16.06263 | 352 ft | 1 kts | 134° |
| 2026-05-07 14:23 | 45.73581 | 16.06246 | 352 ft | 2 kts | 114° |
| 2026-05-07 14:23 | 45.73584 | 16.06225 | 352 ft | 2 kts | 92° |
| 2026-05-07 14:23 | 45.73582 | 16.06204 | 352 ft | 2 kts | 71° |
| 2026-05-07 14:24 | 45.73576 | 16.06184 | 352 ft | 2 kts | 50° |
| 2026-05-07 14:24 | 45.73571 | 16.06177 | 352 ft | 1 kts | 46° |
| 2026-05-07 14:24 | 45.73570 | 16.06175 | 352 ft | 0 kts | 46° |
| 2026-05-07 14:27 | 45.73596 | 16.06215 | 352 ft | 9 kts | 47° |
| 2026-05-07 14:27 | 45.73639 | 16.06281 | 352 ft | 9 kts | 46° |
| 2026-05-07 14:28 | 45.73692 | 16.06362 | 352 ft | 12 kts | 47° |
| 2026-05-07 14:28 | 45.73757 | 16.06461 | 352 ft | 15 kts | 47° |
| 2026-05-07 14:28 | 45.73834 | 16.06580 | 352 ft | 17 kts | 47° |
| 2026-05-07 14:28 | 45.73927 | 16.06720 | 352 ft | 20 kts | 46° |
| 2026-05-07 14:29 | 45.74031 | 16.06879 | 351 ft | 23 kts | 47° |
| 2026-05-07 14:29 | 45.74153 | 16.07063 | 349 ft | 27 kts | 46° |
| 2026-05-07 14:29 | 45.74268 | 16.07239 | 350 ft | 21 kts | 46° |
| 2026-05-07 14:29 | 45.74368 | 16.07391 | 350 ft | 20 kts | 46° |
| 2026-05-07 14:30 | 45.74464 | 16.07536 | 349 ft | 19 kts | 46° |
| 2026-05-07 14:30 | 45.74553 | 16.07672 | 352 ft | 17 kts | 46° |
| 2026-05-07 14:30 | 45.74633 | 16.07791 | 352 ft | 16 kts | 46° |
| 2026-05-07 14:30 | 45.74707 | 16.07906 | 352 ft | 15 kts | 47° |
| 2026-05-07 14:31 | 45.74778 | 16.08015 | 352 ft | 14 kts | 47° |
| 2026-05-07 14:31 | 45.74857 | 16.08062 | 352 ft | 13 kts | 328° |
| 2026-05-07 14:31 | 45.74926 | 16.07974 | 352 ft | 13 kts | 317° |
| 2026-05-07 14:31 | 45.74942 | 16.07868 | 352 ft | 12 kts | 232° |
| 2026-05-07 14:32 | 45.74936 | 16.07858 | 352 ft | 0 kts | 229° |
| 2026-05-07 14:32 | 45.74856 | 16.07734 | 352 ft | 55 kts | 226° |
| 2026-05-07 14:32 | 45.74382 | 16.07015 | 349 ft | 139 kts | 226° |
| 2026-05-07 14:32 | 45.73605 | 16.05798 | 583 ft | 182 kts | 226° |
| 2026-05-07 14:33 | 45.72754 | 16.04302 | 1164 ft | 202 kts | 229° |
| 2026-05-07 14:33 | 45.71766 | 16.02758 | 1774 ft | 225 kts | 224° |
| 2026-05-07 14:33 | 45.70629 | 16.01033 | 2458 ft | 251 kts | 225° |
| 2026-05-07 14:33 | 45.69389 | 15.99126 | 3244 ft | 270 kts | 225° |
| 2026-05-07 14:34 | 45.68099 | 15.97123 | 4126 ft | 284 kts | 226° |
| 2026-05-07 14:34 | 45.66985 | 15.94727 | 5022 ft | 296 kts | 250° |
| 2026-05-07 14:34 | 45.66753 | 15.91812 | 5921 ft | 304 kts | 278° |
| 2026-05-07 14:34 | 45.67351 | 15.89016 | 6863 ft | 307 kts | 298° |
| 2026-05-07 14:35 | 45.68568 | 15.86603 | 7831 ft | 306 kts | 317° |
| 2026-05-07 14:35 | 45.70286 | 15.84879 | 8808 ft | 302 kts | 337° |
| 2026-05-07 14:35 | 45.72261 | 15.84090 | 9752 ft | 297 kts | 356° |
| 2026-05-07 14:35 | 45.74307 | 15.84308 | 10675 ft | 294 kts | 15° |
| 2026-05-07 14:36 | 45.76096 | 15.85454 | 11529 ft | 293 kts | 34° |
| 2026-05-07 14:36 | 45.77574 | 15.87245 | 12361 ft | 291 kts | 43° |
| 2026-05-07 14:36 | 45.79019 | 15.89117 | 13189 ft | 289 kts | 36° |
| 2026-05-07 14:36 | 45.80669 | 15.90564 | 13997 ft | 286 kts | 24° |
| 2026-05-07 14:37 | 45.82420 | 15.91589 | 14794 ft | 283 kts | 18° |
| 2026-05-07 14:37 | 45.85962 | 15.93138 | 16334 ft | 278 kts | 14° |
| 2026-05-07 14:37 | 45.87638 | 15.93805 | 17037 ft | 275 kts | 14° |
| 2026-05-07 14:38 | 45.89470 | 15.94522 | 17788 ft | 272 kts | 13° |
| 2026-05-07 14:38 | 45.91164 | 15.95183 | 18465 ft | 269 kts | 13° |
| 2026-05-07 14:38 | 45.92956 | 15.95881 | 19161 ft | 266 kts | 13° |
| 2026-05-07 14:38 | 45.94717 | 15.96528 | 19813 ft | 262 kts | 7° |
| 2026-05-07 14:39 | 45.96520 | 15.96467 | 20404 ft | 259 kts | 347° |
| 2026-05-07 14:39 | 45.98185 | 15.95523 | 20999 ft | 259 kts | 333° |
| 2026-05-07 14:39 | 45.99657 | 15.94032 | 21585 ft | 261 kts | 324° |
| 2026-05-07 14:39 | 46.00954 | 15.92234 | 22154 ft | 261 kts | 319° |
| 2026-05-07 14:40 | 46.02141 | 15.90313 | 22695 ft | 261 kts | 317° |
| 2026-05-07 14:40 | 46.03281 | 15.88326 | 23215 ft | 259 kts | 316° |
| 2026-05-07 14:40 | 46.04411 | 15.86291 | 23719 ft | 257 kts | 316° |
| 2026-05-07 14:40 | 46.05508 | 15.84283 | 24191 ft | 255 kts | 316° |
| 2026-05-07 14:41 | 46.06598 | 15.82278 | 24650 ft | 256 kts | 316° |
| 2026-05-07 14:41 | 46.07688 | 15.80265 | 25056 ft | 255 kts | 316° |
| 2026-05-07 14:41 | 46.08770 | 15.78264 | 25419 ft | 256 kts | 316° |
| 2026-05-07 14:41 | 46.09847 | 15.76270 | 25774 ft | 256 kts | 316° |
| 2026-05-07 14:42 | 46.10936 | 15.74248 | 26136 ft | 258 kts | 316° |
| 2026-05-07 14:42 | 46.12029 | 15.72214 | 26497 ft | 259 kts | 316° |
| 2026-05-07 14:42 | 46.13116 | 15.70192 | 26852 ft | 260 kts | 316° |
| 2026-05-07 14:42 | 46.14236 | 15.68109 | 27217 ft | 262 kts | 316° |
| 2026-05-07 14:43 | 46.15341 | 15.66053 | 27576 ft | 265 kts | 316° |
| 2026-05-07 14:43 | 46.16483 | 15.63928 | 27941 ft | 269 kts | 315° |
| 2026-05-07 14:43 | 46.17529 | 15.61687 | 28300 ft | 276 kts | 311° |
| 2026-05-07 14:43 | 46.18533 | 15.59295 | 28663 ft | 281 kts | 310° |
| 2026-05-07 14:44 | 46.19537 | 15.56852 | 29027 ft | 285 kts | 310° |
| 2026-05-07 14:44 | 46.20540 | 15.54400 | 29386 ft | 288 kts | 310° |
| 2026-05-07 14:44 | 46.21546 | 15.51936 | 29743 ft | 292 kts | 310° |
| 2026-05-07 14:44 | 46.22592 | 15.49373 | 30110 ft | 295 kts | 310° |
| 2026-05-07 14:45 | 46.23629 | 15.46829 | 30469 ft | 298 kts | 310° |
| 2026-05-07 14:45 | 46.24668 | 15.44276 | 30812 ft | 299 kts | 310° |
| 2026-05-07 14:45 | 46.25720 | 15.41687 | 31066 ft | 300 kts | 310° |
| 2026-05-07 14:45 | 46.26767 | 15.39111 | 31322 ft | 300 kts | 310° |
| 2026-05-07 14:46 | 46.27820 | 15.36516 | 31565 ft | 301 kts | 310° |
| 2026-05-07 14:46 | 46.28846 | 15.33981 | 31796 ft | 301 kts | 309° |
| 2026-05-07 14:46 | 46.29869 | 15.31408 | 31929 ft | 305 kts | 309° |
| 2026-05-07 14:46 | 46.30933 | 15.28742 | 31958 ft | 312 kts | 309° |
| 2026-05-07 14:47 | 46.33137 | 15.23259 | 31962 ft | 327 kts | 309° |
| 2026-05-07 14:47 | 46.35463 | 15.17486 | 31958 ft | 344 kts | 308° |
| 2026-05-07 14:48 | 46.37903 | 15.11422 | 31953 ft | 362 kts | 308° |
| 2026-05-07 14:48 | 46.40466 | 15.05043 | 31949 ft | 381 kts | 307° |
| 2026-05-07 14:49 | 46.43175 | 14.98284 | 31946 ft | 400 kts | 306° |
| 2026-05-07 14:49 | 46.46002 | 14.91213 | 31945 ft | 419 kts | 305° |
| 2026-05-07 14:50 | 46.48948 | 14.83823 | 31946 ft | 437 kts | 305° |
| 2026-05-07 14:50 | 46.51979 | 14.76126 | 31939 ft | 456 kts | 304° |
| 2026-05-07 14:51 | 46.55054 | 14.68035 | 31924 ft | 460 kts | 303° |
| 2026-05-07 14:51 | 46.56541 | 14.64070 | 31913 ft | 444 kts | 303° |
| 2026-05-07 14:51 | 46.57982 | 14.60224 | 31908 ft | 428 kts | 304° |
| 2026-05-07 14:52 | 46.59336 | 14.56612 | 31907 ft | 414 kts | 304° |
| 2026-05-07 14:52 | 46.60681 | 14.53033 | 31910 ft | 406 kts | 304° |
| 2026-05-07 14:52 | 46.63370 | 14.45892 | 31914 ft | 409 kts | 304° |
| 2026-05-07 14:53 | 46.66071 | 14.38703 | 31914 ft | 412 kts | 304° |
| 2026-05-07 14:53 | 46.68582 | 14.31953 | 31914 ft | 411 kts | 303° |
| 2026-05-07 14:54 | 46.71308 | 14.24484 | 31913 ft | 411 kts | 303° |
| 2026-05-07 14:54 | 46.73965 | 14.17262 | 31914 ft | 411 kts | 303° |
| 2026-05-07 14:55 | 46.76649 | 14.09995 | 31914 ft | 411 kts | 303° |
| 2026-05-07 14:55 | 46.79314 | 14.02777 | 31914 ft | 411 kts | 303° |
| 2026-05-07 14:56 | 46.81959 | 13.95601 | 31914 ft | 411 kts | 303° |
| 2026-05-07 14:56 | 46.84609 | 13.88396 | 31913 ft | 411 kts | 303° |
| 2026-05-07 14:57 | 46.87231 | 13.81246 | 31913 ft | 411 kts | 303° |
| 2026-05-07 14:57 | 46.89898 | 13.73955 | 31913 ft | 410 kts | 303° |
| 2026-05-07 14:58 | 46.92529 | 13.66743 | 31913 ft | 408 kts | 303° |
| 2026-05-07 14:58 | 46.95146 | 13.59548 | 31924 ft | 406 kts | 303° |